Time;durP1;ratioP1;P1;durP2;ratioP2;P2;SDS_P1;SDS_P2;PMS_P1;PMS_P2;Temp;Humidity;BMP_temperature;BMP_pressure;BME280_temperature;BME280_humidity;BME280_pressure;Samples;Min_cycle;Max_cycle;Signal;HPM_P1;HPM_P2
2020/12/29 00:00:33;;;;;;;;;;;;;;;;;;5030851;28;20284;-82
2020/12/29 00:02:58;;;;;;;;;;;;;;;;;;5030756;28;19970;-82
2020/12/29 00:05:24;;;;;;;;;;;;;;;;;;5026433;28;20031;-82
2020/12/29 00:07:55;;;;;;;;;;;;;;;;;;5030247;28;19917;-82
2020/12/29 00:10:21;;;;;;;;;;;;;;;;;;5030966;28;19985;-82
2020/12/29 00:12:46;;;;;;;;;;;;;;;;;;5031104;28;19992;-82
2020/12/29 00:15:11;;;;;;;;;;;;;;;;;;5032875;28;20340;-82
2020/12/29 00:17:36;;;;;;;;;;;;;;;;;;5028466;28;19944;-82
2020/12/29 00:20:02;;;;;;;;;;;;;;;;;;5022170;28;19924;-83
2020/12/29 00:22:27;;;;;;;;;;;;;;;;;;5026031;28;19917;-82
2020/12/29 00:24:52;;;;;;;;;;;;;;;;;;5030843;28;20336;-82
2020/12/29 00:27:18;;;;;;;;;;;;;;;;;;5027243;28;19999;-81
2020/12/29 00:29:43;;;;;;;;;;;;;;;;;;5022855;28;20016;-81
2020/12/29 00:32:08;;;;;;;;;;;;;;;;;;5021110;28;19909;-82
2020/12/29 00:34:33;;;;;;;;;;;;;;;;;;5020758;28;20329;-82
2020/12/29 00:36:59;;;;;;;;;;;;;;;;;;5018832;28;19921;-81
2020/12/29 00:39:24;;;;;;;;;;;;;;;;;;5025580;28;20059;-81
2020/12/29 00:41:49;;;;;;;;;;;;;;;;;;5021941;28;19968;-81
2020/12/29 00:44:14;;;;;;;;;;;;;;;;;;5027761;28;19967;-82
2020/12/29 00:46:40;;;;;;;;;;;;;;;;;;5020969;28;19909;-81
2020/12/29 00:49:05;;;;;;;;;;;;;;;;;;5020685;28;19944;-82
2020/12/29 00:51:30;;;;;;;;;;;;;;;;;;5017186;28;20366;-82
2020/12/29 00:54:00;;;;;;;;;;;;;;;;;;5011387;28;20582;-82
2020/12/29 00:56:29;;;;;;;;;;;;;;;;;;5028049;28;19917;-82
2020/12/29 00:58:55;;;;;;;;;;;;;;;;;;5017010;28;19921;-82
2020/12/29 01:01:25;;;;;;;;;;;;;;;;;;5017985;28;19975;-82
2020/12/29 01:04:10;;;;;;;;;;;;;;;;;;5020971;28;19909;-82
2020/12/29 01:06:35;;;;;;;;;;;;;;;;;;5018691;28;20297;-82
2020/12/29 01:09:08;;;;;;;;;;;;;;;;;;5020578;28;20003;-82
2020/12/29 01:11:35;;;;;;;;;;;;;;;;;;5020413;28;19917;-81
2020/12/29 01:14:03;;;;;;;;;;;;;;;;;;5017305;28;19917;-82
2020/12/29 01:16:29;;;;;;;;;;;;;;;;;;5027644;28;19921;-82
2020/12/29 01:18:55;;;;;;;;;;;;;;;;;;5011283;28;19921;-82
2020/12/29 01:21:21;;;;;;;;;;;;;;;;;;5017340;28;20444;-81
2020/12/29 01:23:46;;;;;;;;;;;;;;;;;;5019149;28;19951;-82
2020/12/29 01:26:12;;;;;;;;;;;;;;;;;;5026689;28;19967;-81
2020/12/29 01:28:37;;;;;;;;;;;;;;;;;;5019013;28;19909;-82
2020/12/29 01:31:03;;;;;;;;;;;;;;;;;;5017035;28;20039;-82
2020/12/29 01:33:28;;;;;;;;;;;;;;;;;;5020392;28;20356;-82
2020/12/29 01:35:53;;;;;;;;;;;;;;;;;;5018512;28;19913;-82
2020/12/29 01:38:18;;;;;;;;;;;;;;;;;;5015794;28;19918;-82
2020/12/29 01:40:44;;;;;;;;;;;;;;;;;;5022286;28;19914;-81
2020/12/29 01:43:10;;;;;;;;;;;;;;;;;;5019192;28;19959;-81
2020/12/29 01:45:35;;;;;;;;;;;;;;;;;;5019032;28;19949;-81
2020/12/29 01:48:00;;;;;;;;;;;;;;;;;;5020183;28;19952;-82
2020/12/29 01:50:25;;;;;;;;;;;;;;;;;;5021284;28;19921;-82
2020/12/29 01:52:51;;;;;;;;;;;;;;;;;;5016525;28;19962;-82
2020/12/29 01:55:16;;;;;;;;;;;;;;;;;;5016405;28;19936;-81
2020/12/29 01:57:41;;;;;;;;;;;;;;;;;;5018994;28;19924;-82
2020/12/29 02:00:06;;;;;;;;;;;;;;;;;;5015297;28;19933;-82
2020/12/29 02:02:37;;;;;;;;;;;;;;;;;;5018485;28;19909;-82
2020/12/29 02:05:03;;;;;;;;;;;;;;;;;;5020259;28;19936;-82
2020/12/29 02:07:28;;;;;;;;;;;;;;;;;;5031181;28;20356;-81
2020/12/29 02:09:53;;;;;;;;;;;;;;;;;;5021222;28;20502;-82
2020/12/29 02:12:19;;;;;;;;;;;;;;;;;;5021180;28;20681;-80
2020/12/29 02:14:44;;;;;;;;;;;;;;;;;;5022522;28;19913;-80
2020/12/29 02:17:09;;;;;;;;;;;;;;;;;;5022120;28;19965;-82
2020/12/29 02:19:34;;;;;;;;;;;;;;;;;;5025315;28;19956;-82
2020/12/29 02:22:00;;;;;;;;;;;;;;;;;;5027137;28;19919;-82
2020/12/29 02:24:25;;;;;;;;;;;;;;;;;;5024987;28;20243;-81
2020/12/29 02:26:50;;;;;;;;;;;;;;;;;;5024048;28;19949;-81
2020/12/29 02:29:15;;;;;;;;;;;;;;;;;;5027882;28;19924;-82
2020/12/29 02:31:41;;;;;;;;;;;;;;;;;;5024883;28;19937;-82
2020/12/29 02:34:06;;;;;;;;;;;;;;;;;;5027518;28;20410;-80
2020/12/29 02:36:31;;;;;;;;;;;;;;;;;;5031181;28;19922;-80
2020/12/29 02:38:57;;;;;;;;;;;;;;;;;;5026437;28;19913;-80
2020/12/29 02:41:22;;;;;;;;;;;;;;;;;;5022755;28;19920;-81
2020/12/29 02:43:47;;;;;;;;;;;;;;;;;;5027597;28;19913;-81
2020/12/29 02:46:12;;;;;;;;;;;;;;;;;;5027594;28;19913;-80
2020/12/29 02:48:38;;;;;;;;;;;;;;;;;;5030239;28;19964;-80
2020/12/29 02:51:03;;;;;;;;;;;;;;;;;;5024294;28;19913;-80
2020/12/29 02:53:28;;;;;;;;;;;;;;;;;;5026826;28;19913;-81
2020/12/29 02:55:54;;;;;;;;;;;;;;;;;;5023563;28;20000;-81
2020/12/29 02:58:19;;;;;;;;;;;;;;;;;;5025550;28;19928;-81
2020/12/29 03:00:44;;;;;;;;;;;;;;;;;;5022287;28;19913;-81
2020/12/29 03:03:09;;;;;;;;;;;;;;;;;;5027327;28;19920;-81
2020/12/29 03:05:35;;;;;;;;;;;;;;;;;;5030274;28;19929;-81
2020/12/29 03:08:00;;;;;;;;;;;;;;;;;;5032247;28;19914;-81
2020/12/29 03:10:25;;;;;;;;;;;;;;;;;;5022560;28;20378;-81
2020/12/29 03:12:51;;;;;;;;;;;;;;;;;;5025889;28;19962;-81
2020/12/29 03:15:16;;;;;;;;;;;;;;;;;;5026031;28;19913;-81
2020/12/29 03:17:41;;;;;;;;;;;;;;;;;;5021910;28;19928;-81
2020/12/29 03:20:06;;;;;;;;;;;;;;;;;;5025058;28;20008;-81
2020/12/29 03:22:32;;;;;;;;;;;;;;;;;;5022455;28;20433;-81
2020/12/29 03:24:57;;;;;;;;;;;;;;;;;;5021832;28;20394;-81
2020/12/29 03:27:22;;;;;;;;;;;;;;;;;;5024330;28;19980;-81
2020/12/29 03:29:47;;;;;;;;;;;;;;;;;;5019969;28;19959;-81
2020/12/29 03:32:13;;;;;;;;;;;;;;;;;;5024162;28;19986;-81
2020/12/29 03:34:38;;;;;;;;;;;;;;;;;;5019392;28;20015;-81
2020/12/29 03:37:03;;;;;;;;;;;;;;;;;;5031437;28;20000;-81
2020/12/29 03:39:28;;;;;;;;;;;;;;;;;;5022716;28;19960;-81
2020/12/29 03:41:54;;;;;;;;;;;;;;;;;;5027456;28;19960;-81
2020/12/29 03:44:19;;;;;;;;;;;;;;;;;;5021240;28;19914;-81
2020/12/29 03:46:44;;;;;;;;;;;;;;;;;;5025725;28;19937;-81
2020/12/29 03:49:10;;;;;;;;;;;;;;;;;;5022423;28;19936;-80
2020/12/29 03:51:35;;;;;;;;;;;;;;;;;;5019680;28;19987;-81
2020/12/29 03:54:00;;;;;;;;;;;;;;;;;;5028739;28;20326;-81
2020/12/29 03:56:25;;;;;;;;;;;;;;;;;;5025859;28;20353;-81
2020/12/29 03:58:51;;;;;;;;;;;;;;;;;;5019388;28;19913;-81
2020/12/29 04:01:16;;;;;;;;;;;;;;;;;;5019473;28;19924;-82
2020/12/29 04:03:41;;;;;;;;;;;;;;;;;;5022789;28;19915;-81
2020/12/29 04:06:07;;;;;;;;;;;;;;;;;;5018706;28;19996;-81
2020/12/29 04:08:32;;;;;;;;;;;;;;;;;;5019498;28;19913;-81
2020/12/29 04:10:57;;;;;;;;;;;;;;;;;;5018896;28;19920;-82
2020/12/29 04:13:22;;;;;;;;;;;;;;;;;;5018518;28;20690;-81
2020/12/29 04:15:48;;;;;;;;;;;;;;;;;;5023054;28;20374;-81
2020/12/29 04:18:13;;;;;;;;;;;;;;;;;;5021951;28;19925;-81
2020/12/29 04:20:38;;;;;;;;;;;;;;;;;;5018958;28;19917;-81
2020/12/29 04:23:03;;;;;;;;;;;;;;;;;;5020451;28;19909;-81
2020/12/29 04:25:29;;;;;;;;;;;;;;;;;;5018689;28;20452;-81
2020/12/29 04:27:54;;;;;;;;;;;;;;;;;;5017867;28;19982;-81
2020/12/29 04:30:19;;;;;;;;;;;;;;;;;;5024915;28;20381;-82
2020/12/29 04:32:44;;;;;;;;;;;;;;;;;;5018677;28;19916;-82
2020/12/29 04:35:10;;;;;;;;;;;;;;;;;;5020101;28;19923;-82
2020/12/29 04:37:35;;;;;;;;;;;;;;;;;;5022995;28;20082;-81
2020/12/29 04:40:00;;;;;;;;;;;;;;;;;;5030355;28;20318;-82
2020/12/29 04:42:25;;;;;;;;;;;;;;;;;;5030428;28;20277;-82
2020/12/29 04:44:52;;;;;;;;;;;;;;;;;;5018513;28;20296;-81
2020/12/29 04:47:17;;;;;;;;;;;;;;;;;;5022275;28;19917;-81
2020/12/29 04:49:42;;;;;;;;;;;;;;;;;;5020894;28;19913;-81
2020/12/29 04:52:07;;;;;;;;;;;;;;;;;;5023505;28;19914;-81
2020/12/29 04:54:33;;;;;;;;;;;;;;;;;;5030008;28;20020;-80
2020/12/29 04:56:58;;;;;;;;;;;;;;;;;;5018527;28;19925;-82
2020/12/29 04:59:23;;;;;;;;;;;;;;;;;;5027116;28;20100;-81
2020/12/29 05:01:49;;;;;;;;;;;;;;;;;;5020323;28;19964;-81
2020/12/29 05:04:14;;;;;;;;;;;;;;;;;;5018042;28;19913;-82
2020/12/29 05:06:39;;;;;;;;;;;;;;;;;;5019416;28;19924;-81
2020/12/29 05:09:05;;;;;;;;;;;;;;;;;;5020078;28;20012;-81
2020/12/29 05:11:30;;;;;;;;;;;;;;;;;;5020526;28;20394;-81
2020/12/29 05:13:55;;;;;;;;;;;;;;;;;;5017805;28;20366;-81
2020/12/29 05:16:20;;;;;;;;;;;;;;;;;;5016482;28;20047;-81
2020/12/29 05:18:46;;;;;;;;;;;;;;;;;;5029003;28;20020;-81
2020/12/29 05:21:11;;;;;;;;;;;;;;;;;;5016710;28;20397;-81
2020/12/29 05:23:36;;;;;;;;;;;;;;;;;;5019719;28;19913;-81
2020/12/29 05:26:02;;;;;;;;;;;;;;;;;;5016665;28;20289;-81
2020/12/29 05:28:27;;;;;;;;;;;;;;;;;;5017743;28;20785;-80
2020/12/29 05:30:52;;;;;;;;;;;;;;;;;;5020054;28;19920;-81
2020/12/29 05:33:17;;;;;;;;;;;;;;;;;;5024456;28;20385;-81
2020/12/29 05:35:43;;;;;;;;;;;;;;;;;;5016614;28;20349;-81
2020/12/29 05:38:08;;;;;;;;;;;;;;;;;;5017566;28;19965;-81
2020/12/29 05:40:33;;;;;;;;;;;;;;;;;;5032821;28;19921;-81
2020/12/29 05:42:59;;;;;;;;;;;;;;;;;;5021445;28;19967;-80
2020/12/29 05:45:24;;;;;;;;;;;;;;;;;;5021222;28;20366;-81
2020/12/29 05:47:49;;;;;;;;;;;;;;;;;;5027803;28;19957;-81
2020/12/29 05:50:15;;;;;;;;;;;;;;;;;;5023448;28;19972;-81
2020/12/29 05:52:40;;;;;;;;;;;;;;;;;;5028169;28;19913;-81
2020/12/29 05:55:05;;;;;;;;;;;;;;;;;;5025766;28;19917;-81
2020/12/29 05:57:30;;;;;;;;;;;;;;;;;;5022256;28;19921;-81
2020/12/29 05:59:56;;;;;;;;;;;;;;;;;;5020080;28;19933;-81
2020/12/29 06:02:21;;;;;;;;;;;;;;;;;;5020386;28;19914;-81
2020/12/29 06:04:46;;;;;;;;;;;;;;;;;;5022463;28;20548;-81
2020/12/29 06:07:12;;;;;;;;;;;;;;;;;;5029792;28;19921;-81
2020/12/29 06:09:37;;;;;;;;;;;;;;;;;;5022273;28;19920;-80
2020/12/29 06:12:02;;;;;;;;;;;;;;;;;;5020586;28;19921;-80
2020/12/29 06:14:27;;;;;;;;;;;;;;;;;;5021031;28;19917;-81
2020/12/29 06:16:53;;;;;;;;;;;;;;;;;;5021113;28;19921;-80
2020/12/29 06:19:18;;;;;;;;;;;;;;;;;;5019815;28;19960;-80
2020/12/29 06:21:44;;;;;;;;;;;;;;;;;;5022402;28;19959;-80
2020/12/29 06:24:09;;;;;;;;;;;;;;;;;;5030018;28;20388;-80
2020/12/29 06:26:34;;;;;;;;;;;;;;;;;;5031149;28;20374;-80
2020/12/29 06:28:59;;;;;;;;;;;;;;;;;;5020652;28;19920;-80
2020/12/29 06:31:25;;;;;;;;;;;;;;;;;;5020546;28;19920;-81
2020/12/29 06:33:50;;;;;;;;;;;;;;;;;;5021446;28;20278;-80
2020/12/29 06:36:15;;;;;;;;;;;;;;;;;;5029512;28;20459;-81
2020/12/29 06:38:41;;;;;;;;;;;;;;;;;;5027041;28;19913;-80
2020/12/29 06:41:06;;;;;;;;;;;;;;;;;;5024555;28;19943;-82
2020/12/29 06:43:31;;;;;;;;;;;;;;;;;;5024700;28;19916;-83
2020/12/29 06:45:56;;;;;;;;;;;;;;;;;;5052335;28;19913;-83
2020/12/29 06:48:22;;;;;;;;;;;;;;;;;;5067524;28;20368;-83
2020/12/29 06:50:47;;;;;;;;;;;;;;;;;;5066211;28;19935;-82
2020/12/29 06:53:12;;;;;;;;;;;;;;;;;;5053078;28;19913;-83
2020/12/29 06:55:37;;;;;;;;;;;;;;;;;;5033759;28;201320;-82
2020/12/29 06:58:03;;;;;;;;;;;;;;;;;;5041074;28;20304;-84
2020/12/29 07:00:28;;;;;;;;;;;;;;;;;;5051853;28;20001;-83
2020/12/29 07:02:54;;;;;;;;;;;;;;;;;;5041188;28;20337;-83
2020/12/29 07:05:20;;;;;;;;;;;;;;;;;;5041286;28;20417;-85
2020/12/29 07:07:46;;;;;;;;;;;;;;;;;;5050985;28;19960;-86
2020/12/29 07:10:11;;;;;;;;;;;;;;;;;;5051185;28;19968;-86
2020/12/29 07:12:36;;;;;;;;;;;;;;;;;;5060648;28;19952;-85
2020/12/29 07:15:01;;;;;;;;;;;;;;;;;;5049494;28;19917;-85
2020/12/29 07:17:27;;;;;;;;;;;;;;;;;;5048545;28;20323;-85
2020/12/29 07:19:52;;;;;;;;;;;;;;;;;;5038832;28;20365;-86
2020/12/29 07:22:17;;;;;;;;;;;;;;;;;;5048638;28;19916;-86
2020/12/29 07:24:43;;;;;;;;;;;;;;;;;;5051636;28;19912;-87
2020/12/29 07:27:08;;;;;;;;;;;;;;;;;;5041543;28;19913;-85
2020/12/29 07:29:33;;;;;;;;;;;;;;;;;;5054232;28;19970;-84
2020/12/29 07:31:58;;;;;;;;;;;;;;;;;;5044298;28;19932;-85
2020/12/29 07:34:24;;;;;;;;;;;;;;;;;;5043102;28;20404;-85
2020/12/29 07:36:49;;;;;;;;;;;;;;;;;;5041840;28;19959;-85
2020/12/29 07:39:14;;;;;;;;;;;;;;;;;;5050140;28;20016;-86
2020/12/29 07:41:39;;;;;;;;;;;;;;;;;;5048846;28;20281;-85
2020/12/29 07:44:05;;;;;;;;;;;;;;;;;;5053246;28;19917;-85
2020/12/29 07:46:30;;;;;;;;;;;;;;;;;;5038790;28;19909;-85
2020/12/29 07:48:55;;;;;;;;;;;;;;;;;;5042449;28;19917;-85
2020/12/29 07:51:20;;;;;;;;;;;;;;;;;;5039561;28;19944;-85
2020/12/29 07:53:46;;;;;;;;;;;;;;;;;;5044625;28;19924;-85
2020/12/29 07:56:11;;;;;;;;;;;;;;;;;;5051319;28;19909;-83
2020/12/29 07:58:36;;;;;;;;;;;;;;;;;;5049530;28;19928;-84
2020/12/29 08:01:01;;;;;;;;;;;;;;;;;;5039017;28;20362;-86
2020/12/29 08:03:27;;;;;;;;;;;;;;;;;;5039182;28;19943;-85
2020/12/29 08:05:52;;;;;;;;;;;;;;;;;;5067704;28;19916;-85
2020/12/29 08:08:17;;;;;;;;;;;;;;;;;;5051816;28;19938;-85
2020/12/29 08:10:43;;;;;;;;;;;;;;;;;;5040294;28;19913;-86
2020/12/29 08:13:08;;;;;;;;;;;;;;;;;;5038930;28;19913;-84
2020/12/29 08:15:33;;;;;;;;;;;;;;;;;;5038872;28;19959;-85
2020/12/29 08:17:58;;;;;;;;;;;;;;;;;;5059748;28;20308;-85
2020/12/29 08:20:24;;;;;;;;;;;;;;;;;;5045463;28;19913;-86
2020/12/29 08:22:49;;;;;;;;;;;;;;;;;;5048721;28;19913;-87
2020/12/29 08:25:14;;;;;;;;;;;;;;;;;;5051429;28;19912;-86
2020/12/29 08:27:39;;;;;;;;;;;;;;;;;;5051978;28;20297;-87
2020/12/29 08:30:05;;;;;;;;;;;;;;;;;;5051908;28;19913;-87
2020/12/29 08:32:30;;;;;;;;;;;;;;;;;;5051492;28;20030;-85
2020/12/29 08:34:55;;;;;;;;;;;;;;;;;;5050153;28;20343;-85
2020/12/29 08:37:23;;;;;;;;;;;;;;;;;;5066498;28;19924;-83
2020/12/29 08:39:48;;;;;;;;;;;;;;;;;;5048421;28;19909;-84
2020/12/29 08:42:13;;;;;;;;;;;;;;;;;;5044814;28;20403;-85
2020/12/29 08:44:38;;;;;;;;;;;;;;;;;;5049351;28;19917;-85
2020/12/29 08:47:04;;;;;;;;;;;;;;;;;;5054050;28;19913;-86
2020/12/29 08:49:29;;;;;;;;;;;;;;;;;;5048229;28;20433;-85
2020/12/29 08:51:55;;;;;;;;;;;;;;;;;;5048567;28;20011;-86
2020/12/29 08:54:20;;;;;;;;;;;;;;;;;;5048234;28;20388;-86
2020/12/29 08:56:45;;;;;;;;;;;;;;;;;;5043611;28;19921;-84
2020/12/29 08:59:11;;;;;;;;;;;;;;;;;;5044624;28;19998;-86
2020/12/29 09:01:36;;;;;;;;;;;;;;;;;;5046259;28;19917;-86
2020/12/29 09:04:01;;;;;;;;;;;;;;;;;;5040088;28;19909;-85
2020/12/29 09:06:26;;;;;;;;;;;;;;;;;;5053425;28;20015;-84
2020/12/29 09:08:51;;;;;;;;;;;;;;;;;;5053421;28;19913;-84
2020/12/29 09:11:17;;;;;;;;;;;;;;;;;;5048993;28;19924;-86
2020/12/29 09:13:42;;;;;;;;;;;;;;;;;;5051603;28;19924;-83
2020/12/29 09:16:07;;;;;;;;;;;;;;;;;;5052603;28;19917;-82
2020/12/29 09:18:32;;;;;;;;;;;;;;;;;;5050115;28;19920;-83
2020/12/29 09:20:58;;;;;;;;;;;;;;;;;;5053809;28;19980;-83
2020/12/29 09:23:23;;;;;;;;;;;;;;;;;;5051548;28;19935;-82
2020/12/29 09:25:48;;;;;;;;;;;;;;;;;;5054304;28;19912;-82
2020/12/29 09:28:14;;;;;;;;;;;;;;;;;;5056214;28;20325;-83
2020/12/29 09:30:39;;;;;;;;;;;;;;;;;;5043142;28;19917;-82
2020/12/29 09:33:05;;;;;;;;;;;;;;;;;;5048529;28;20356;-82
2020/12/29 09:35:30;;;;;;;;;;;;;;;;;;5043575;28;20027;-83
2020/12/29 09:37:55;;;;;;;;;;;;;;;;;;5045873;28;20369;-82
2020/12/29 09:40:20;;;;;;;;;;;;;;;;;;5047626;28;19920;-82
2020/12/29 09:42:46;;;;;;;;;;;;;;;;;;5057567;28;20368;-83
2020/12/29 09:45:11;;;;;;;;;;;;;;;;;;5044951;28;20314;-83
2020/12/29 09:47:36;;;;;;;;;;;;;;;;;;5039278;28;19923;-83
2020/12/29 09:50:01;;;;;;;;;;;;;;;;;;5058972;28;19928;-82
2020/12/29 09:52:27;;;;;;;;;;;;;;;;;;5045706;28;20388;-83
2020/12/29 09:54:52;;;;;;;;;;;;;;;;;;5045372;28;20506;-82
2020/12/29 09:57:17;;;;;;;;;;;;;;;;;;5042402;28;19931;-82
2020/12/29 09:59:42;;;;;;;;;;;;;;;;;;5042383;28;19919;-83
2020/12/29 10:02:08;;;;;;;;;;;;;;;;;;5048603;28;19917;-83
2020/12/29 10:04:33;;;;;;;;;;;;;;;;;;5059303;28;20031;-84
2020/12/29 10:06:58;;;;;;;;;;;;;;;;;;5043404;28;19917;-84
2020/12/29 10:09:23;;;;;;;;;;;;;;;;;;5045757;28;19913;-83
2020/12/29 10:11:49;;;;;;;;;;;;;;;;;;5047801;28;19909;-84
2020/12/29 10:14:14;;;;;;;;;;;;;;;;;;5047367;28;19914;-84
2020/12/29 10:16:39;;;;;;;;;;;;;;;;;;5041537;28;19932;-83
2020/12/29 10:19:04;;;;;;;;;;;;;;;;;;5049221;28;20433;-83
2020/12/29 10:21:30;;;;;;;;;;;;;;;;;;5057001;28;20118;-83
2020/12/29 10:23:55;;;;;;;;;;;;;;;;;;5048682;28;19913;-83
2020/12/29 10:26:20;;;;;;;;;;;;;;;;;;5058483;28;19913;-83
2020/12/29 10:28:45;;;;;;;;;;;;;;;;;;5051712;28;19917;-83
2020/12/29 10:31:11;;;;;;;;;;;;;;;;;;5063793;28;20011;-82
2020/12/29 10:33:36;;;;;;;;;;;;;;;;;;5043802;28;20127;-83
2020/12/29 10:36:01;;;;;;;;;;;;;;;;;;5047272;28;19920;-78
2020/12/29 10:38:27;;;;;;;;;;;;;;;;;;5044050;28;20020;-84
2020/12/29 10:40:52;;;;;;;;;;;;;;;;;;5048396;28;20017;-83
2020/12/29 10:43:17;;;;;;;;;;;;;;;;;;5046409;28;19913;-82
2020/12/29 10:45:43;;;;;;;;;;;;;;;;;;5048369;28;19974;-82
2020/12/29 10:48:08;;;;;;;;;;;;;;;;;;5051539;28;19959;-81
2020/12/29 10:50:33;;;;;;;;;;;;;;;;;;5049844;28;20345;-81
2020/12/29 10:52:58;;;;;;;;;;;;;;;;;;5052134;28;19928;-81
2020/12/29 10:55:24;;;;;;;;;;;;;;;;;;5055387;28;19986;-80
2020/12/29 10:57:49;;;;;;;;;;;;;;;;;;5055111;28;19999;-81
2020/12/29 11:00:14;;;;;;;;;;;;;;;;;;5055988;28;20392;-81
2020/12/29 11:02:40;;;;;;;;;;;;;;;;;;5044286;28;19921;-82
2020/12/29 11:05:05;;;;;;;;;;;;;;;;;;5046386;28;20328;-82
2020/12/29 11:07:30;;;;;;;;;;;;;;;;;;5047725;28;19916;-83
2020/12/29 11:09:56;;;;;;;;;;;;;;;;;;5043923;28;19921;-81
2020/12/29 11:12:21;;;;;;;;;;;;;;;;;;5039115;28;20375;-82
2020/12/29 11:14:46;;;;;;;;;;;;;;;;;;5050315;28;19916;-82
2020/12/29 11:17:11;;;;;;;;;;;;;;;;;;5046159;28;19943;-81
2020/12/29 11:19:37;;;;;;;;;;;;;;;;;;5049770;28;19913;-79
2020/12/29 11:22:02;;;;;;;;;;;;;;;;;;5043635;28;20021;-78
2020/12/29 11:24:27;;;;;;;;;;;;;;;;;;5043154;28;19916;-79
2020/12/29 11:26:52;;;;;;;;;;;;;;;;;;5048385;28;19950;-78
2020/12/29 11:29:18;;;;;;;;;;;;;;;;;;5047400;28;19909;-79
2020/12/29 11:31:43;;;;;;;;;;;;;;;;;;5039294;28;19924;-78
2020/12/29 11:34:08;;;;;;;;;;;;;;;;;;5042009;28;19909;-79
2020/12/29 11:36:33;;;;;;;;;;;;;;;;;;5045928;28;19913;-79
2020/12/29 11:38:59;;;;;;;;;;;;;;;;;;5049143;28;19913;-78
2020/12/29 11:41:24;;;;;;;;;;;;;;;;;;5044535;28;19912;-78
2020/12/29 11:43:51;;;;;;;;;;;;;;;;;;5042279;28;19913;-79
2020/12/29 11:46:16;;;;;;;;;;;;;;;;;;5042461;28;19923;-78
2020/12/29 11:48:41;;;;;;;;;;;;;;;;;;5038556;28;19913;-78
2020/12/29 11:51:07;;;;;;;;;;;;;;;;;;5039855;28;19913;-78
2020/12/29 11:53:32;;;;;;;;;;;;;;;;;;5048999;28;20380;-78
2020/12/29 11:55:57;;;;;;;;;;;;;;;;;;5044012;28;19913;-78
2020/12/29 11:58:22;;;;;;;;;;;;;;;;;;5046256;28;19916;-78
2020/12/29 12:00:48;;;;;;;;;;;;;;;;;;5040854;28;19912;-78
2020/12/29 12:03:13;;;;;;;;;;;;;;;;;;5050713;28;19913;-78
2020/12/29 12:05:38;;;;;;;;;;;;;;;;;;5061015;28;19913;-78
2020/12/29 12:08:03;;;;;;;;;;;;;;;;;;5045258;28;19920;-78
2020/12/29 12:10:29;;;;;;;;;;;;;;;;;;5061115;28;19963;-79
2020/12/29 12:12:54;;;;;;;;;;;;;;;;;;5041643;28;19909;-78
2020/12/29 12:15:19;;;;;;;;;;;;;;;;;;5042268;28;19916;-78
2020/12/29 12:17:44;;;;;;;;;;;;;;;;;;5055169;28;19936;-79
2020/12/29 12:20:10;;;;;;;;;;;;;;;;;;5042160;28;19913;-78
2020/12/29 12:22:35;;;;;;;;;;;;;;;;;;5046199;28;19913;-78
2020/12/29 12:25:00;;;;;;;;;;;;;;;;;;5046658;28;19994;-78
2020/12/29 12:27:25;;;;;;;;;;;;;;;;;;5040255;28;19910;-78
2020/12/29 12:29:51;;;;;;;;;;;;;;;;;;5049368;28;19917;-78
2020/12/29 12:32:16;;;;;;;;;;;;;;;;;;5060715;28;19912;-79
2020/12/29 12:34:41;;;;;;;;;;;;;;;;;;5045124;28;19912;-79
2020/12/29 12:37:07;;;;;;;;;;;;;;;;;;5058120;28;19920;-79
2020/12/29 12:39:32;;;;;;;;;;;;;;;;;;5045874;28;19921;-79
2020/12/29 12:41:57;;;;;;;;;;;;;;;;;;5047576;28;19919;-79
2020/12/29 12:44:22;;;;;;;;;;;;;;;;;;5052541;28;19935;-79
2020/12/29 12:46:48;;;;;;;;;;;;;;;;;;5062069;28;19913;-79
2020/12/29 12:49:13;;;;;;;;;;;;;;;;;;5048683;28;19920;-79
2020/12/29 12:51:38;;;;;;;;;;;;;;;;;;5045326;28;19948;-79
2020/12/29 12:54:03;;;;;;;;;;;;;;;;;;5057340;28;19924;-81
2020/12/29 12:56:30;;;;;;;;;;;;;;;;;;5049791;28;20326;-80
2020/12/29 12:58:55;;;;;;;;;;;;;;;;;;5058488;28;19924;-81
2020/12/29 13:01:21;;;;;;;;;;;;;;;;;;5046628;28;20003;-80
2020/12/29 13:03:46;;;;;;;;;;;;;;;;;;5045944;28;20293;-79
2020/12/29 13:06:11;;;;;;;;;;;;;;;;;;5047150;28;19981;-79
2020/12/29 13:08:37;;;;;;;;;;;;;;;;;;5039395;28;19921;-80
2020/12/29 13:11:02;;;;;;;;;;;;;;;;;;5044501;28;19919;-79
2020/12/29 13:13:28;;;;;;;;;;;;;;;;;;5039522;28;19913;-80
2020/12/29 13:15:54;;;;;;;;;;;;;;;;;;5058224;28;19927;-81
2020/12/29 13:18:19;;;;;;;;;;;;;;;;;;5045593;28;19925;-80
2020/12/29 13:20:44;;;;;;;;;;;;;;;;;;5042137;28;19920;-82
2020/12/29 13:23:10;;;;;;;;;;;;;;;;;;5043834;28;19968;-81
2020/12/29 13:25:35;;;;;;;;;;;;;;;;;;5045246;28;19917;-81
2020/12/29 13:28:00;;;;;;;;;;;;;;;;;;5052712;28;20336;-79
2020/12/29 13:30:25;;;;;;;;;;;;;;;;;;5044189;28;19913;-80
2020/12/29 13:32:51;;;;;;;;;;;;;;;;;;5056704;28;19917;-79
2020/12/29 13:35:16;;;;;;;;;;;;;;;;;;5049140;28;19916;-78
2020/12/29 13:37:41;;;;;;;;;;;;;;;;;;5060748;28;20397;-78
2020/12/29 13:40:06;;;;;;;;;;;;;;;;;;5057967;28;20004;-78
2020/12/29 13:42:32;;;;;;;;;;;;;;;;;;5048609;28;19999;-78
2020/12/29 13:44:57;;;;;;;;;;;;;;;;;;5054831;28;19909;-78
2020/12/29 13:47:22;;;;;;;;;;;;;;;;;;5044563;28;19924;-78
2020/12/29 13:49:47;;;;;;;;;;;;;;;;;;5045528;28;19917;-78
2020/12/29 13:52:13;;;;;;;;;;;;;;;;;;5047799;28;19913;-78
2020/12/29 13:54:39;;;;;;;;;;;;;;;;;;5047229;28;19914;-78
2020/12/29 13:57:04;;;;;;;;;;;;;;;;;;5036527;28;19925;-78
2020/12/29 13:59:29;;;;;;;;;;;;;;;;;;5045625;28;19943;-78
2020/12/29 14:01:54;;;;;;;;;;;;;;;;;;5045415;28;19938;-77
2020/12/29 14:04:20;;;;;;;;;;;;;;;;;;5050059;28;19963;-78
2020/12/29 14:06:45;;;;;;;;;;;;;;;;;;5045872;28;19967;-78
2020/12/29 14:09:10;;;;;;;;;;;;;;;;;;5048188;28;20003;-78
2020/12/29 14:11:35;;;;;;;;;;;;;;;;;;5053952;28;19967;-78
2020/12/29 14:14:02;;;;;;;;;;;;;;;;;;5042993;28;19981;-78
2020/12/29 14:16:27;;;;;;;;;;;;;;;;;;5046599;28;19920;-78
2020/12/29 14:18:52;;;;;;;;;;;;;;;;;;5045940;28;19923;-78
2020/12/29 14:21:17;;;;;;;;;;;;;;;;;;5042302;28;19913;-77
2020/12/29 14:23:43;;;;;;;;;;;;;;;;;;5044157;28;20007;-78
2020/12/29 14:26:08;;;;;;;;;;;;;;;;;;5047552;28;19920;-77
2020/12/29 14:28:33;;;;;;;;;;;;;;;;;;5056385;28;19920;-77
2020/12/29 14:30:58;;;;;;;;;;;;;;;;;;5043291;28;19919;-77
2020/12/29 14:33:24;;;;;;;;;;;;;;;;;;5042892;28;20302;-76
2020/12/29 14:35:49;;;;;;;;;;;;;;;;;;5048763;28;20628;-77
2020/12/29 14:38:14;;;;;;;;;;;;;;;;;;5045730;28;19987;-78
2020/12/29 14:40:39;;;;;;;;;;;;;;;;;;5043766;28;19939;-77
2020/12/29 14:43:05;;;;;;;;;;;;;;;;;;5044093;28;20403;-79
2020/12/29 14:45:30;;;;;;;;;;;;;;;;;;5044145;28;19913;-81
2020/12/29 14:47:55;;;;;;;;;;;;;;;;;;5042875;28;19921;-79
2020/12/29 14:50:21;;;;;;;;;;;;;;;;;;5043894;28;20297;-78
2020/12/29 14:52:46;;;;;;;;;;;;;;;;;;5040700;28;20460;-78
2020/12/29 14:55:11;;;;;;;;;;;;;;;;;;5049444;28;19913;-79
2020/12/29 14:57:36;;;;;;;;;;;;;;;;;;5047305;28;20300;-78
2020/12/29 15:00:02;;;;;;;;;;;;;;;;;;5045173;28;19917;-78
2020/12/29 15:02:27;;;;;;;;;;;;;;;;;;5050111;28;19971;-79
2020/12/29 15:04:52;;;;;;;;;;;;;;;;;;5047958;28;20207;-80
2020/12/29 15:07:17;;;;;;;;;;;;;;;;;;5047617;28;20292;-77
2020/12/29 15:09:43;;;;;;;;;;;;;;;;;;5043566;28;20369;-78
2020/12/29 15:12:08;;;;;;;;;;;;;;;;;;5061542;28;20007;-78
2020/12/29 15:14:33;;;;;;;;;;;;;;;;;;5040788;28;19949;-80
2020/12/29 15:16:58;;;;;;;;;;;;;;;;;;5040063;28;19932;-80
2020/12/29 15:19:24;;;;;;;;;;;;;;;;;;5044346;28;19917;-80
2020/12/29 15:21:49;;;;;;;;;;;;;;;;;;5049782;28;19909;-80
2020/12/29 15:24:14;;;;;;;;;;;;;;;;;;5043701;28;19920;-80
2020/12/29 15:26:39;;;;;;;;;;;;;;;;;;5047225;28;19913;-80
2020/12/29 15:29:05;;;;;;;;;;;;;;;;;;5052572;28;19924;-80
2020/12/29 15:31:30;;;;;;;;;;;;;;;;;;5044895;28;20400;-80
2020/12/29 15:33:55;;;;;;;;;;;;;;;;;;5042252;28;19940;-81
2020/12/29 15:36:21;;;;;;;;;;;;;;;;;;5061286;28;19913;-80
2020/12/29 15:38:46;;;;;;;;;;;;;;;;;;5043257;28;19927;-80
2020/12/29 15:41:11;;;;;;;;;;;;;;;;;;5041987;28;19915;-80
2020/12/29 15:43:37;;;;;;;;;;;;;;;;;;5049538;28;19916;-80
2020/12/29 15:46:02;;;;;;;;;;;;;;;;;;5043093;28;19909;-80
2020/12/29 15:48:27;;;;;;;;;;;;;;;;;;5046837;28;19913;-80
2020/12/29 15:50:52;;;;;;;;;;;;;;;;;;5043005;28;19949;-80
2020/12/29 15:53:18;;;;;;;;;;;;;;;;;;5047262;28;20373;-80
2020/12/29 15:55:43;;;;;;;;;;;;;;;;;;5047799;28;19999;-80
2020/12/29 15:58:08;;;;;;;;;;;;;;;;;;5047524;28;20019;-80
2020/12/29 16:00:34;;;;;;;;;;;;;;;;;;5051625;28;19958;-80
2020/12/29 16:02:59;;;;;;;;;;;;;;;;;;5047803;28;20003;-80
2020/12/29 16:05:24;;;;;;;;;;;;;;;;;;5053560;28;19913;-81
2020/12/29 16:07:49;;;;;;;;;;;;;;;;;;5047041;28;19924;-80
2020/12/29 16:10:16;;;;;;;;;;;;;;;;;;5040210;28;19913;-80
2020/12/29 16:12:41;;;;;;;;;;;;;;;;;;5045390;28;19917;-80
2020/12/29 16:15:06;;;;;;;;;;;;;;;;;;5062506;28;20693;-80
2020/12/29 16:17:32;;;;;;;;;;;;;;;;;;5043900;28;19943;-80
2020/12/29 16:19:57;;;;;;;;;;;;;;;;;;5047270;28;20403;-80
2020/12/29 16:22:22;;;;;;;;;;;;;;;;;;5045503;28;19917;-80
2020/12/29 16:24:48;;;;;;;;;;;;;;;;;;5047424;28;19909;-80
2020/12/29 16:27:13;;;;;;;;;;;;;;;;;;5048462;28;19913;-80
2020/12/29 16:29:38;;;;;;;;;;;;;;;;;;5050745;28;19948;-80
2020/12/29 16:32:04;;;;;;;;;;;;;;;;;;5037887;28;19917;-80